sensor_id;sensor_type;location;lat;lon;timestamp;pressure;altitude;pressure_sealevel;temperature;humidity
34243;BME280;20504;43.214;27.920;2023-07-08T00:01:31;98154.47;;;26.82;100.00
34243;BME280;20504;43.214;27.920;2023-07-08T00:04:17;97905.66;;;26.65;100.00
34243;BME280;20504;43.214;27.920;2023-07-08T00:06:50;97766.19;;;26.49;100.00
34243;BME280;20504;43.214;27.920;2023-07-08T00:10:04;97875.50;;;26.71;100.00
34243;BME280;20504;43.214;27.920;2023-07-08T00:31:07;97804.66;;;26.25;100.00
34243;BME280;20504;43.214;27.920;2023-07-08T00:34:05;97744.69;;;25.80;100.00
34243;BME280;20504;43.214;27.920;2023-07-08T00:36:55;97838.34;;;26.30;100.00
34243;BME280;20504;43.214;27.920;2023-07-08T00:48:15;97720.41;;;26.20;100.00
34243;BME280;20504;43.214;27.920;2023-07-08T00:51:41;97698.13;;;26.03;100.00
34243;BME280;20504;43.214;27.920;2023-07-08T01:05:35;97669.63;;;25.48;100.00
34243;BME280;20504;43.214;27.920;2023-07-08T01:08:58;97732.53;;;25.87;100.00
34243;BME280;20504;43.214;27.920;2023-07-08T01:22:42;97700.16;;;25.28;100.00
34243;BME280;20504;43.214;27.920;2023-07-08T01:25:40;97748.34;;;25.53;100.00
34243;BME280;20504;43.214;27.920;2023-07-08T01:34:10;97803.41;;;25.91;100.00
34243;BME280;20504;43.214;27.920;2023-07-08T01:37:21;97699.84;;;25.20;100.00
34243;BME280;20504;43.214;27.920;2023-07-08T01:45:36;97715.66;;;25.33;100.00
34243;BME280;20504;43.214;27.920;2023-07-08T02:05:33;97670.91;;;25.30;100.00
34243;BME280;20504;43.214;27.920;2023-07-08T02:14:21;97773.53;;;24.85;100.00
34243;BME280;20504;43.214;27.920;2023-07-08T02:17:08;97720.75;;;24.92;100.00
34243;BME280;20504;43.214;27.920;2023-07-08T02:20:01;58754.66;;;-143.38;100.00
34243;BME280;20504;43.214;27.920;2023-07-08T02:23:15;58754.66;;;-143.38;100.00
34243;BME280;20504;43.214;27.920;2023-07-08T02:32:10;58754.66;;;-143.38;100.00
34243;BME280;20504;43.214;27.920;2023-07-08T02:34:54;58754.66;;;-143.38;100.00
34243;BME280;20504;43.214;27.920;2023-07-08T02:38:00;58754.66;;;-143.38;100.00
34243;BME280;20504;43.214;27.920;2023-07-08T02:40:49;58754.66;;;-143.38;100.00
34243;BME280;20504;43.214;27.920;2023-07-08T02:43:21;58754.66;;;-143.38;100.00
34243;BME280;20504;43.214;27.920;2023-07-08T02:46:14;58754.66;;;-143.38;100.00
34243;BME280;20504;43.214;27.920;2023-07-08T02:48:54;58754.66;;;-143.38;100.00
34243;BME280;20504;43.214;27.920;2023-07-08T02:51:52;58754.66;;;-143.38;100.00
34243;BME280;20504;43.214;27.920;2023-07-08T02:54:41;58754.66;;;-143.38;100.00
34243;BME280;20504;43.214;27.920;2023-07-08T02:57:13;58754.66;;;-143.38;100.00
34243;BME280;20504;43.214;27.920;2023-07-08T02:59:55;58754.66;;;-143.38;100.00
34243;BME280;20504;43.214;27.920;2023-07-08T03:02:51;58754.66;;;-143.38;100.00
34243;BME280;20504;43.214;27.920;2023-07-08T03:05:29;58754.66;;;-143.38;100.00
34243;BME280;20504;43.214;27.920;2023-07-08T03:08:14;58754.66;;;-143.38;100.00
34243;BME280;20504;43.214;27.920;2023-07-08T03:14:21;58754.66;;;-143.38;100.00
34243;BME280;20504;43.214;27.920;2023-07-08T03:20:15;58754.66;;;-143.38;100.00
34243;BME280;20504;43.214;27.920;2023-07-08T03:22:49;58754.66;;;-143.38;100.00
34243;BME280;20504;43.214;27.920;2023-07-08T03:25:35;58754.66;;;-143.38;100.00
34243;BME280;20504;43.214;27.920;2023-07-08T03:28:09;58754.66;;;-143.38;100.00
34243;BME280;20504;43.214;27.920;2023-07-08T03:30:55;58754.66;;;-143.38;100.00
34243;BME280;20504;43.214;27.920;2023-07-08T03:36:02;58754.66;;;-143.38;100.00
34243;BME280;20504;43.214;27.920;2023-07-08T03:39:08;58754.66;;;-143.38;100.00
34243;BME280;20504;43.214;27.920;2023-07-08T03:41:48;58754.66;;;-143.38;100.00
34243;BME280;20504;43.214;27.920;2023-07-08T03:44:31;58754.66;;;-143.38;100.00
34243;BME280;20504;43.214;27.920;2023-07-08T03:47:27;58754.66;;;-143.38;100.00
34243;BME280;20504;43.214;27.920;2023-07-08T03:53:04;58754.66;;;-143.38;100.00
34243;BME280;20504;43.214;27.920;2023-07-08T03:56:17;58754.66;;;-143.38;100.00
34243;BME280;20504;43.214;27.920;2023-07-08T03:58:46;58754.66;;;-143.38;100.00
34243;BME280;20504;43.214;27.920;2023-07-08T04:04:01;58754.66;;;-143.38;100.00
34243;BME280;20504;43.214;27.920;2023-07-08T04:09:57;58754.66;;;-143.38;100.00
34243;BME280;20504;43.214;27.920;2023-07-08T04:15:16;58754.66;;;-143.38;100.00
34243;BME280;20504;43.214;27.920;2023-07-08T04:18:04;58754.66;;;-143.38;100.00
34243;BME280;20504;43.214;27.920;2023-07-08T04:25:51;58754.66;;;-143.38;100.00
34243;BME280;20504;43.214;27.920;2023-07-08T04:33:47;58754.66;;;-143.38;100.00
34243;BME280;20504;43.214;27.920;2023-07-08T04:36:16;58754.66;;;-143.38;100.00
34243;BME280;20504;43.214;27.920;2023-07-08T04:41:34;58754.66;;;-143.38;100.00
34243;BME280;20504;43.214;27.920;2023-07-08T04:53:30;58754.66;;;-143.38;100.00
34243;BME280;20504;43.214;27.920;2023-07-08T04:59:50;58754.66;;;-143.38;100.00
34243;BME280;20504;43.214;27.920;2023-07-08T05:02:35;58754.66;;;-143.38;100.00
34243;BME280;20504;43.214;27.920;2023-07-08T05:05:20;58754.66;;;-143.38;100.00
34243;BME280;20504;43.214;27.920;2023-07-08T05:24:04;58754.66;;;-143.38;100.00
34243;BME280;20504;43.214;27.920;2023-07-08T05:26:36;58754.66;;;-143.38;100.00
34243;BME280;20504;43.214;27.920;2023-07-08T05:29:35;58754.66;;;-143.38;100.00
34243;BME280;20504;43.214;27.920;2023-07-08T05:32:23;58754.66;;;-143.38;100.00
34243;BME280;20504;43.214;27.920;2023-07-08T05:37:53;58754.66;;;-143.38;100.00
34243;BME280;20504;43.214;27.920;2023-07-08T05:41:17;58754.66;;;-143.38;100.00
34243;BME280;20504;43.214;27.920;2023-07-08T07:24:55;58754.66;;;-143.38;100.00
34243;BME280;20504;43.214;27.920;2023-07-08T07:27:25;58754.66;;;-143.38;100.00
34243;BME280;20504;43.214;27.920;2023-07-08T07:29:51;58754.66;;;-143.38;100.00
34243;BME280;20504;43.214;27.920;2023-07-08T07:32:22;58754.66;;;-143.38;100.00
34243;BME280;20504;43.214;27.920;2023-07-08T07:34:48;58754.66;;;-143.38;100.00
34243;BME280;20504;43.214;27.920;2023-07-08T07:37:16;58754.66;;;-143.38;100.00
34243;BME280;20504;43.214;27.920;2023-07-08T07:39:55;58754.66;;;-143.38;100.00
34243;BME280;20504;43.214;27.920;2023-07-08T07:42:21;58754.66;;;-143.38;100.00
34243;BME280;20504;43.214;27.920;2023-07-08T07:45:11;58754.66;;;-143.38;100.00
34243;BME280;20504;43.214;27.920;2023-07-08T07:47:41;58754.66;;;-143.38;100.00
34243;BME280;20504;43.214;27.920;2023-07-08T07:50:32;58754.66;;;-143.38;100.00
34243;BME280;20504;43.214;27.920;2023-07-08T07:53:01;58754.66;;;-143.38;100.00
34243;BME280;20504;43.214;27.920;2023-07-08T07:55:33;58754.66;;;-143.38;100.00
34243;BME280;20504;43.214;27.920;2023-07-08T07:58:20;58754.66;;;-143.38;100.00
34243;BME280;20504;43.214;27.920;2023-07-08T08:00:48;58754.66;;;-143.38;100.00
34243;BME280;20504;43.214;27.920;2023-07-08T08:03:13;58754.66;;;-143.38;100.00
34243;BME280;20504;43.214;27.920;2023-07-08T08:05:41;58754.66;;;-143.38;100.00
34243;BME280;20504;43.214;27.920;2023-07-08T08:08:08;58754.66;;;-143.38;100.00
34243;BME280;20504;43.214;27.920;2023-07-08T08:10:36;58754.66;;;-143.38;100.00
34243;BME280;20504;43.214;27.920;2023-07-08T08:13:03;58754.66;;;-143.38;100.00
34243;BME280;20504;43.214;27.920;2023-07-08T08:15:31;58754.66;;;-143.38;100.00
34243;BME280;20504;43.214;27.920;2023-07-08T08:17:59;58754.66;;;-143.38;100.00
34243;BME280;20504;43.214;27.920;2023-07-08T08:20:57;58754.66;;;-143.38;100.00
34243;BME280;20504;43.214;27.920;2023-07-08T08:23:38;58754.66;;;-143.38;100.00
34243;BME280;20504;43.214;27.920;2023-07-08T08:26:04;58754.66;;;-143.38;100.00
34243;BME280;20504;43.214;27.920;2023-07-08T08:28:34;58754.66;;;-143.38;100.00
34243;BME280;20504;43.214;27.920;2023-07-08T08:31:03;58754.66;;;-143.38;100.00
34243;BME280;20504;43.214;27.920;2023-07-08T08:33:32;58754.66;;;-143.38;100.00
34243;BME280;20504;43.214;27.920;2023-07-08T08:35:59;58754.66;;;-143.38;100.00
34243;BME280;20504;43.214;27.920;2023-07-08T08:38:27;58754.66;;;-143.38;100.00
34243;BME280;20504;43.214;27.920;2023-07-08T08:41:13;58754.66;;;-143.38;100.00
34243;BME280;20504;43.214;27.920;2023-07-08T08:43:41;58754.66;;;-143.38;100.00
34243;BME280;20504;43.214;27.920;2023-07-08T08:46:38;58754.66;;;-143.38;100.00
34243;BME280;20504;43.214;27.920;2023-07-08T08:49:32;58754.66;;;-143.38;100.00
34243;BME280;20504;43.214;27.920;2023-07-08T08:52:47;58754.66;;;-143.38;100.00
34243;BME280;20504;43.214;27.920;2023-07-08T08:55:57;58754.66;;;-143.38;100.00
34243;BME280;20504;43.214;27.920;2023-07-08T09:01:46;58754.66;;;-143.38;100.00
34243;BME280;20504;43.214;27.920;2023-07-08T09:04:36;58754.66;;;-143.38;100.00
34243;BME280;20504;43.214;27.920;2023-07-08T09:07:26;58754.66;;;-143.38;100.00
34243;BME280;20504;43.214;27.920;2023-07-08T09:10:46;58754.66;;;-143.38;100.00
34243;BME280;20504;43.214;27.920;2023-07-08T09:15:42;58754.66;;;-143.38;100.00
34243;BME280;20504;43.214;27.920;2023-07-08T09:21:19;58754.66;;;-143.38;100.00
34243;BME280;20504;43.214;27.920;2023-07-08T09:24:19;58754.66;;;-143.38;100.00
34243;BME280;20504;43.214;27.920;2023-07-08T09:26:56;58754.66;;;-143.38;100.00
34243;BME280;20504;43.214;27.920;2023-07-08T09:29:28;58754.66;;;-143.38;100.00
34243;BME280;20504;43.214;27.920;2023-07-08T09:35:04;58754.66;;;-143.38;100.00
34243;BME280;20504;43.214;27.920;2023-07-08T09:37:47;58754.66;;;-143.38;100.00
34243;BME280;20504;43.214;27.920;2023-07-08T09:40:36;58754.66;;;-143.38;100.00
34243;BME280;20504;43.214;27.920;2023-07-08T09:43:24;58754.66;;;-143.38;100.00
34243;BME280;20504;43.214;27.920;2023-07-08T09:45:55;58754.66;;;-143.38;100.00
34243;BME280;20504;43.214;27.920;2023-07-08T09:48:49;58754.66;;;-143.38;100.00
34243;BME280;20504;43.214;27.920;2023-07-08T09:51:21;58754.66;;;-143.38;100.00
34243;BME280;20504;43.214;27.920;2023-07-08T09:53:54;58754.66;;;-143.38;100.00
34243;BME280;20504;43.214;27.920;2023-07-08T09:59:18;58754.66;;;-143.38;100.00
34243;BME280;20504;43.214;27.920;2023-07-08T10:01:51;58754.66;;;-143.38;100.00
34243;BME280;20504;43.214;27.920;2023-07-08T10:04:19;58754.66;;;-143.38;100.00
34243;BME280;20504;43.214;27.920;2023-07-08T10:06:49;58754.66;;;-143.38;100.00
34243;BME280;20504;43.214;27.920;2023-07-08T10:09:20;58754.66;;;-143.38;100.00
34243;BME280;20504;43.214;27.920;2023-07-08T10:12:05;58754.66;;;-143.38;100.00
34243;BME280;20504;43.214;27.920;2023-07-08T10:14:44;58754.66;;;-143.38;100.00
34243;BME280;20504;43.214;27.920;2023-07-08T10:17:22;58754.66;;;-143.38;100.00
34243;BME280;20504;43.214;27.920;2023-07-08T10:19:56;58754.66;;;-143.38;100.00
34243;BME280;20504;43.214;27.920;2023-07-08T10:23:02;58754.66;;;-143.38;100.00
34243;BME280;20504;43.214;27.920;2023-07-08T10:25:40;58754.66;;;-143.38;100.00
34243;BME280;20504;43.214;27.920;2023-07-08T10:32:06;58754.66;;;-143.38;100.00
34243;BME280;20504;43.214;27.920;2023-07-08T10:35:21;58754.66;;;-143.38;100.00
34243;BME280;20504;43.214;27.920;2023-07-08T10:40:48;58754.66;;;-143.38;100.00
34243;BME280;20504;43.214;27.920;2023-07-08T10:52:24;58754.66;;;-143.38;100.00
34243;BME280;20504;43.214;27.920;2023-07-08T10:55:12;58754.66;;;-143.38;100.00
34243;BME280;20504;43.214;27.920;2023-07-08T11:04:42;58754.66;;;-143.38;100.00
34243;BME280;20504;43.214;27.920;2023-07-08T11:07:40;58754.66;;;-143.38;100.00
34243;BME280;20504;43.214;27.920;2023-07-08T11:13:16;58754.66;;;-143.38;100.00
34243;BME280;20504;43.214;27.920;2023-07-08T11:16:07;58754.66;;;-143.38;100.00
34243;BME280;20504;43.214;27.920;2023-07-08T11:18:48;58754.66;;;-143.38;100.00
34243;BME280;20504;43.214;27.920;2023-07-08T11:21:45;58754.66;;;-143.38;100.00
34243;BME280;20504;43.214;27.920;2023-07-08T11:24:32;58754.66;;;-143.38;100.00
34243;BME280;20504;43.214;27.920;2023-07-08T11:27:09;58754.66;;;-143.38;100.00
34243;BME280;20504;43.214;27.920;2023-07-08T11:29:49;58754.66;;;-143.38;100.00
34243;BME280;20504;43.214;27.920;2023-07-08T11:32:38;58754.66;;;-143.38;100.00
34243;BME280;20504;43.214;27.920;2023-07-08T11:35:52;58754.66;;;-143.38;100.00
34243;BME280;20504;43.214;27.920;2023-07-08T11:38:53;58754.66;;;-143.38;100.00
34243;BME280;20504;43.214;27.920;2023-07-08T11:42:43;58754.66;;;-143.38;100.00
34243;BME280;20504;43.214;27.920;2023-07-08T11:45:26;58754.66;;;-143.38;100.00
34243;BME280;20504;43.214;27.920;2023-07-08T11:48:16;58754.66;;;-143.38;100.00
34243;BME280;20504;43.214;27.920;2023-07-08T11:50:53;58754.66;;;-143.38;100.00
34243;BME280;20504;43.214;27.920;2023-07-08T11:57:15;58754.66;;;-143.38;100.00
34243;BME280;20504;43.214;27.920;2023-07-08T11:59:45;58754.66;;;-143.38;100.00
34243;BME280;20504;43.214;27.920;2023-07-08T12:02:22;58754.66;;;-143.38;100.00
34243;BME280;20504;43.214;27.920;2023-07-08T12:05:16;58754.66;;;-143.38;100.00
34243;BME280;20504;43.214;27.920;2023-07-08T12:08:15;58754.66;;;-143.38;100.00
34243;BME280;20504;43.214;27.920;2023-07-08T12:10:52;58754.66;;;-143.38;100.00
34243;BME280;20504;43.214;27.920;2023-07-08T12:13:40;58754.66;;;-143.38;100.00
34243;BME280;20504;43.214;27.920;2023-07-08T12:16:17;58754.66;;;-143.38;100.00
34243;BME280;20504;43.214;27.920;2023-07-08T12:19:03;58754.66;;;-143.38;100.00
34243;BME280;20504;43.214;27.920;2023-07-08T12:21:38;58754.66;;;-143.38;100.00
34243;BME280;20504;43.214;27.920;2023-07-08T12:24:15;58754.66;;;-143.38;100.00
34243;BME280;20504;43.214;27.920;2023-07-08T12:26:56;58754.66;;;-143.38;100.00
34243;BME280;20504;43.214;27.920;2023-07-08T12:29:26;58754.66;;;-143.38;100.00
34243;BME280;20504;43.214;27.920;2023-07-08T12:31:52;58754.66;;;-143.38;100.00
34243;BME280;20504;43.214;27.920;2023-07-08T12:34:25;58754.66;;;-143.38;100.00
34243;BME280;20504;43.214;27.920;2023-07-08T12:36:58;58754.66;;;-143.38;100.00
34243;BME280;20504;43.214;27.920;2023-07-08T12:39:33;58754.66;;;-143.38;100.00
34243;BME280;20504;43.214;27.920;2023-07-08T12:42:30;58754.66;;;-143.38;100.00
34243;BME280;20504;43.214;27.920;2023-07-08T12:45:04;58754.66;;;-143.38;100.00
34243;BME280;20504;43.214;27.920;2023-07-08T12:47:43;58754.66;;;-143.38;100.00
34243;BME280;20504;43.214;27.920;2023-07-08T12:50:26;58754.66;;;-143.38;100.00
34243;BME280;20504;43.214;27.920;2023-07-08T12:53:30;58754.66;;;-143.38;100.00
34243;BME280;20504;43.214;27.920;2023-07-08T12:56:27;58754.66;;;-143.38;100.00
34243;BME280;20504;43.214;27.920;2023-07-08T12:59:33;58754.66;;;-143.38;100.00
34243;BME280;20504;43.214;27.920;2023-07-08T13:02:38;58754.66;;;-143.38;100.00
34243;BME280;20504;43.214;27.920;2023-07-08T13:05:30;58754.66;;;-143.38;100.00
34243;BME280;20504;43.214;27.920;2023-07-08T13:08:30;58754.66;;;-143.38;100.00
34243;BME280;20504;43.214;27.920;2023-07-08T13:11:35;58754.66;;;-143.38;100.00
34243;BME280;20504;43.214;27.920;2023-07-08T13:14:48;58754.66;;;-143.38;100.00
34243;BME280;20504;43.214;27.920;2023-07-08T13:17:43;58754.66;;;-143.38;100.00
34243;BME280;20504;43.214;27.920;2023-07-08T13:20:38;58754.66;;;-143.38;100.00
34243;BME280;20504;43.214;27.920;2023-07-08T13:23:09;58754.66;;;-143.38;100.00
34243;BME280;20504;43.214;27.920;2023-07-08T13:25:59;58754.66;;;-143.38;100.00
34243;BME280;20504;43.214;27.920;2023-07-08T13:29:54;58754.66;;;-143.38;100.00
34243;BME280;20504;43.214;27.920;2023-07-08T13:33:23;58754.66;;;-143.38;100.00
34243;BME280;20504;43.214;27.920;2023-07-08T13:36:29;58754.66;;;-143.38;100.00
34243;BME280;20504;43.214;27.920;2023-07-08T13:39:26;58754.66;;;-143.38;100.00
34243;BME280;20504;43.214;27.920;2023-07-08T13:42:12;58754.66;;;-143.38;100.00
34243;BME280;20504;43.214;27.920;2023-07-08T13:44:44;58754.66;;;-143.38;100.00
34243;BME280;20504;43.214;27.920;2023-07-08T13:47:23;58754.66;;;-143.38;100.00
34243;BME280;20504;43.214;27.920;2023-07-08T13:50:17;58754.66;;;-143.38;100.00
34243;BME280;20504;43.214;27.920;2023-07-08T13:52:55;58754.66;;;-143.38;100.00
34243;BME280;20504;43.214;27.920;2023-07-08T13:55:22;58754.66;;;-143.38;100.00
34243;BME280;20504;43.214;27.920;2023-07-08T13:58:13;58754.66;;;-143.38;100.00
34243;BME280;20504;43.214;27.920;2023-07-08T14:00:51;58754.66;;;-143.38;100.00
34243;BME280;20504;43.214;27.920;2023-07-08T14:06:43;58754.66;;;-143.38;100.00
34243;BME280;20504;43.214;27.920;2023-07-08T14:28:40;58754.66;;;-143.38;100.00
34243;BME280;20504;43.214;27.920;2023-07-08T14:31:52;58754.66;;;-143.38;100.00
34243;BME280;20504;43.214;27.920;2023-07-08T14:35:24;58754.66;;;-143.38;100.00
34243;BME280;20504;43.214;27.920;2023-07-08T14:46:33;58754.66;;;-143.38;100.00
34243;BME280;20504;43.214;27.920;2023-07-08T14:53:19;58754.66;;;-143.38;100.00
34243;BME280;20504;43.214;27.920;2023-07-08T15:01:36;58754.66;;;-143.38;100.00
34243;BME280;20504;43.214;27.920;2023-07-08T16:15:56;58754.66;;;-143.38;100.00
34243;BME280;20504;43.214;27.920;2023-07-08T16:18:44;58754.66;;;-143.38;100.00
34243;BME280;20504;43.214;27.920;2023-07-08T16:21:58;58754.66;;;-143.38;100.00
34243;BME280;20504;43.214;27.920;2023-07-08T16:25:16;58754.66;;;-143.38;100.00
34243;BME280;20504;43.214;27.920;2023-07-08T16:27:43;58754.66;;;-143.38;100.00
34243;BME280;20504;43.214;27.920;2023-07-08T16:30:22;58754.66;;;-143.38;100.00
34243;BME280;20504;43.214;27.920;2023-07-08T16:32:53;58754.66;;;-143.38;100.00
34243;BME280;20504;43.214;27.920;2023-07-08T16:35:21;58754.66;;;-143.38;100.00
34243;BME280;20504;43.214;27.920;2023-07-08T16:37:57;58754.66;;;-143.38;100.00
34243;BME280;20504;43.214;27.920;2023-07-08T16:40:33;58754.66;;;-143.38;100.00
34243;BME280;20504;43.214;27.920;2023-07-08T16:43:35;58754.66;;;-143.38;100.00
34243;BME280;20504;43.214;27.920;2023-07-08T16:46:21;58754.66;;;-143.38;100.00
34243;BME280;20504;43.214;27.920;2023-07-08T16:48:47;58754.66;;;-143.38;100.00
34243;BME280;20504;43.214;27.920;2023-07-08T16:51:28;58754.66;;;-143.38;100.00
34243;BME280;20504;43.214;27.920;2023-07-08T16:54:21;58754.66;;;-143.38;100.00
34243;BME280;20504;43.214;27.920;2023-07-08T16:57:22;58754.66;;;-143.38;100.00
34243;BME280;20504;43.214;27.920;2023-07-08T17:00:43;58754.66;;;-143.38;100.00
34243;BME280;20504;43.214;27.920;2023-07-08T17:03:18;58754.66;;;-143.38;100.00
34243;BME280;20504;43.214;27.920;2023-07-08T17:06:03;58754.66;;;-143.38;100.00
34243;BME280;20504;43.214;27.920;2023-07-08T17:09:19;58754.66;;;-143.38;100.00
34243;BME280;20504;43.214;27.920;2023-07-08T17:11:53;58754.66;;;-143.38;100.00
34243;BME280;20504;43.214;27.920;2023-07-08T17:14:52;58754.66;;;-143.38;100.00
34243;BME280;20504;43.214;27.920;2023-07-08T17:17:24;58754.66;;;-143.38;100.00
34243;BME280;20504;43.214;27.920;2023-07-08T17:20:00;58754.66;;;-143.38;100.00
34243;BME280;20504;43.214;27.920;2023-07-08T17:22:41;58754.66;;;-143.38;100.00
34243;BME280;20504;43.214;27.920;2023-07-08T17:25:21;58754.66;;;-143.38;100.00
34243;BME280;20504;43.214;27.920;2023-07-08T17:27:54;58754.66;;;-143.38;100.00
34243;BME280;20504;43.214;27.920;2023-07-08T17:30:23;58754.66;;;-143.38;100.00
34243;BME280;20504;43.214;27.920;2023-07-08T17:33:07;58754.66;;;-143.38;100.00
34243;BME280;20504;43.214;27.920;2023-07-08T17:35:43;58754.66;;;-143.38;100.00
34243;BME280;20504;43.214;27.920;2023-07-08T17:41:16;58754.66;;;-143.38;100.00
34243;BME280;20504;43.214;27.920;2023-07-08T17:44:07;58754.66;;;-143.38;100.00
34243;BME280;20504;43.214;27.920;2023-07-08T17:46:35;58754.66;;;-143.38;100.00
34243;BME280;20504;43.214;27.920;2023-07-08T17:49:11;58754.66;;;-143.38;100.00
34243;BME280;20504;43.214;27.920;2023-07-08T17:59:41;58754.66;;;-143.38;100.00
34243;BME280;20504;43.214;27.920;2023-07-08T18:02:36;58754.66;;;-143.38;100.00
34243;BME280;20504;43.214;27.920;2023-07-08T18:05:18;58754.66;;;-143.38;100.00
34243;BME280;20504;43.214;27.920;2023-07-08T18:08:23;58754.66;;;-143.38;100.00
34243;BME280;20504;43.214;27.920;2023-07-08T18:11:48;58754.66;;;-143.38;100.00
34243;BME280;20504;43.214;27.920;2023-07-08T18:17:08;58754.66;;;-143.38;100.00
34243;BME280;20504;43.214;27.920;2023-07-08T18:20:14;58754.66;;;-143.38;100.00
34243;BME280;20504;43.214;27.920;2023-07-08T18:22:49;58754.66;;;-143.38;100.00
34243;BME280;20504;43.214;27.920;2023-07-08T18:25:49;58754.66;;;-143.38;100.00
34243;BME280;20504;43.214;27.920;2023-07-08T18:28:46;58754.66;;;-143.38;100.00
34243;BME280;20504;43.214;27.920;2023-07-08T18:31:54;58754.66;;;-143.38;100.00
34243;BME280;20504;43.214;27.920;2023-07-08T18:34:26;58754.66;;;-143.38;100.00
34243;BME280;20504;43.214;27.920;2023-07-08T18:37:21;58754.66;;;-143.38;100.00
34243;BME280;20504;43.214;27.920;2023-07-08T18:40:15;58754.66;;;-143.38;100.00
34243;BME280;20504;43.214;27.920;2023-07-08T18:43:09;58754.66;;;-143.38;100.00
34243;BME280;20504;43.214;27.920;2023-07-08T18:45:59;58754.66;;;-143.38;100.00
34243;BME280;20504;43.214;27.920;2023-07-08T18:48:50;58754.66;;;-143.38;100.00
34243;BME280;20504;43.214;27.920;2023-07-08T18:54:00;58754.66;;;-143.38;100.00
34243;BME280;20504;43.214;27.920;2023-07-08T18:56:52;58754.66;;;-143.38;100.00
34243;BME280;20504;43.214;27.920;2023-07-08T19:02:33;58754.66;;;-143.38;100.00
34243;BME280;20504;43.214;27.920;2023-07-08T19:05:17;58754.66;;;-143.38;100.00
34243;BME280;20504;43.214;27.920;2023-07-08T19:08:07;58754.66;;;-143.38;100.00
34243;BME280;20504;43.214;27.920;2023-07-08T19:10:37;58754.66;;;-143.38;100.00
34243;BME280;20504;43.214;27.920;2023-07-08T19:13:19;58754.66;;;-143.38;100.00
34243;BME280;20504;43.214;27.920;2023-07-08T19:15:52;58754.66;;;-143.38;100.00
34243;BME280;20504;43.214;27.920;2023-07-08T19:36:10;58754.66;;;-143.38;100.00
34243;BME280;20504;43.214;27.920;2023-07-08T19:42:01;58754.66;;;-143.38;100.00
34243;BME280;20504;43.214;27.920;2023-07-08T19:45:00;58754.66;;;-143.38;100.00
34243;BME280;20504;43.214;27.920;2023-07-08T19:55:38;58754.66;;;-143.38;100.00
34243;BME280;20504;43.214;27.920;2023-07-08T19:58:11;58754.66;;;-143.38;100.00
34243;BME280;20504;43.214;27.920;2023-07-08T20:00:51;58754.66;;;-143.38;100.00
34243;BME280;20504;43.214;27.920;2023-07-08T20:03:46;58754.66;;;-143.38;100.00
34243;BME280;20504;43.214;27.920;2023-07-08T20:18:26;58754.66;;;-143.38;100.00
34243;BME280;20504;43.214;27.920;2023-07-08T20:20:52;58754.66;;;-143.38;100.00
34243;BME280;20504;43.214;27.920;2023-07-08T20:23:23;58754.66;;;-143.38;100.00
34243;BME280;20504;43.214;27.920;2023-07-08T20:25:48;58754.66;;;-143.38;100.00
34243;BME280;20504;43.214;27.920;2023-07-08T20:28:16;58754.66;;;-143.38;100.00
34243;BME280;20504;43.214;27.920;2023-07-08T20:30:42;58754.66;;;-143.38;100.00
34243;BME280;20504;43.214;27.920;2023-07-08T20:33:13;58754.66;;;-143.38;100.00
34243;BME280;20504;43.214;27.920;2023-07-08T20:35:49;58754.66;;;-143.38;100.00
34243;BME280;20504;43.214;27.920;2023-07-08T20:38:18;58754.66;;;-143.38;100.00
34243;BME280;20504;43.214;27.920;2023-07-08T20:40:45;58754.66;;;-143.38;100.00
34243;BME280;20504;43.214;27.920;2023-07-08T20:43:18;58754.66;;;-143.38;100.00
34243;BME280;20504;43.214;27.920;2023-07-08T20:45:45;58754.66;;;-143.38;100.00
34243;BME280;20504;43.214;27.920;2023-07-08T20:48:27;58754.66;;;-143.38;100.00
34243;BME280;20504;43.214;27.920;2023-07-08T20:50:54;58754.66;;;-143.38;100.00
34243;BME280;20504;43.214;27.920;2023-07-08T20:53:21;58754.66;;;-143.38;100.00
34243;BME280;20504;43.214;27.920;2023-07-08T20:55:48;58754.66;;;-143.38;100.00
34243;BME280;20504;43.214;27.920;2023-07-08T20:58:15;58754.66;;;-143.38;100.00
34243;BME280;20504;43.214;27.920;2023-07-08T21:00:41;58754.66;;;-143.38;100.00
34243;BME280;20504;43.214;27.920;2023-07-08T21:03:15;58754.66;;;-143.38;100.00
34243;BME280;20504;43.214;27.920;2023-07-08T21:05:45;58754.66;;;-143.38;100.00
34243;BME280;20504;43.214;27.920;2023-07-08T21:08:25;58754.66;;;-143.38;100.00
34243;BME280;20504;43.214;27.920;2023-07-08T21:10:52;58754.66;;;-143.38;100.00
34243;BME280;20504;43.214;27.920;2023-07-08T21:13:19;58754.66;;;-143.38;100.00
34243;BME280;20504;43.214;27.920;2023-07-08T21:15:46;58754.66;;;-143.38;100.00
34243;BME280;20504;43.214;27.920;2023-07-08T21:18:16;58754.66;;;-143.38;100.00
34243;BME280;20504;43.214;27.920;2023-07-08T21:20:43;58754.66;;;-143.38;100.00
34243;BME280;20504;43.214;27.920;2023-07-08T21:23:13;58754.66;;;-143.38;100.00
34243;BME280;20504;43.214;27.920;2023-07-08T21:25:39;58754.66;;;-143.38;100.00
34243;BME280;20504;43.214;27.920;2023-07-08T21:28:05;58754.66;;;-143.38;100.00
34243;BME280;20504;43.214;27.920;2023-07-08T21:30:31;58754.66;;;-143.38;100.00
34243;BME280;20504;43.214;27.920;2023-07-08T21:32:57;58754.66;;;-143.38;100.00
34243;BME280;20504;43.214;27.920;2023-07-08T21:35:25;58754.66;;;-143.38;100.00